Portland, Oregon
Traffic Map
Current Weather Conditions
Portland, Oregon
Overcast
Overcast

Feels Like: 6°
Wind Chill: Ceiling: 4100
Heat Index: Visibility: 10mi
Dew Point: Wind: 9mph
Humidity: 74% Direction: 300° (WNW)
Pressure: 30.12in Gusts: 0mph
Raw Report DataKPDX 300853Z 30008KT 10SM FEW033 BKN041 OVC049 08/04 A3012 RMK AO2 SLP199 T00830039 53015
Traffic Incident Summary
Active as of:
Severity:
Category:
InformationThere was an issue retrieving the traffic information for this location. Please try a different location or try again shortly.
Advertisements
Track Severe Weather on mobile